Hanjin Valencia — 3FSR7 — position and weather

sailwx.info

Track history (hours):
 
Tides and Currents Weather Stations Pressure Air Temp Water Temp Dewpoint Dewpoint Depression Visibility Wind Speed Wind Dir Waves Ship Positions

Hanjin Valencia

Last reported at 2017-Feb-19 22:20 UTC. Time now 2017-Feb-27 14:15 UTC.
Position N 38°19' E 121°34'.

Length 183 m; draft 11.6 m.

Type: Tanker. MMSI: 374057000.

Date/timePositionNaut miles runAvg speedWind from/ knotsBaromVisibWave heightAir tempDewpointWater temp
2017-Feb-19 22:20N 38°19' E 121°34'2311.8
2017-Feb-19 20:25N 38°28' E 121°07'1011.6
2017-Feb-19 19:34N 38°32' E 120°56'1110.7
2017-Feb-19 18:33N 38°36' E 120°43'  
2017-Feb-15 02:28N 38°41' E 120°15'2512.7
2017-Feb-15 00:32N 38°37' E 120°46'1212.6
2017-Feb-14 23:33N 38°34' E 121°01'1313.3
2017-Feb-14 22:33N 38°27' E 121°17'1413.9
2017-Feb-14 21:33N 38°21' E 121°32'41113.1
2017-Feb-13 14:16N 31°34' E 122°45'1014.1
2017-Feb-13 13:33N 31°25' E 122°39'1313.3
2017-Feb-13 12:33N 31°13' E 122°33'8 7.7
2017-Feb-13 11:31N 31°05' E 122°30'9 9.1
2017-Feb-13 10:33N 31°06' E 122°20'1414.4
2017-Feb-13 09:33N 31°14' E 122°06'1514.6
2017-Feb-13 08:33N 31°17' E 121°49'1211.5
2017-Feb-13 07:33N 31°22' E 121°37'8 8.4
2017-Feb-13 06:33N 31°27' E 121°29'9 9.3
2017-Feb-13 05:33N 31°33' E 121°20'1111.0
2017-Feb-13 04:33N 31°40' E 121°11'1413.1
2017-Feb-13 03:31N 31°47' E 120°57'2310.7
2017-Feb-13 01:20N 32°00' E 120°35'7 8.5
2017-Feb-13 00:33N 32°00' E 120°27'0 0.1
2017-Feb-12 23:33N 32°00' E 120°27'0 0.0
2017-Feb-12 22:33N 32°00' E 120°27'0 0.0
2017-Feb-12 21:32N 32°00' E 120°27'0 0.0
2017-Feb-12 20:33N 32°00' E 120°27'0 0.0
2017-Feb-12 19:33N 32°00' E 120°27'0 0.0
2017-Feb-12 18:32N 32°00' E 120°27'0 0.0
2017-Feb-12 17:27N 32°00' E 120°27'0 0.0
2017-Feb-12 16:32N 32°00' E 120°27'0 0.0
2017-Feb-12 15:30N 32°00' E 120°27'0 0.0
2017-Feb-12 14:33N 32°00' E 120°27'0 0.0
2017-Feb-12 13:33N 32°00' E 120°27'0 0.0
2017-Feb-12 12:32N 32°00' E 120°27'0 0.0
2017-Feb-12 11:32N 32°00' E 120°27'0 0.0
2017-Feb-12 10:11N 32°00' E 120°27'0 0.0
2017-Feb-12 09:32N 32°00' E 120°27'0 0.0
2017-Feb-12 08:30N 32°00' E 120°27'0 0.0
2017-Feb-12 07:29N 32°00' E 120°27'0 0.0
2017-Feb-12 06:32N 32°00' E 120°27'0 0.0
2017-Feb-12 05:33N 32°00' E 120°27'4 3.7
2017-Feb-12 04:33N 32°02' E 120°31'28 8.7
2017-Feb-12 01:19N 31°47' E 120°59'9 8.8
2017-Feb-12 00:18N 31°42' E 121°08'710.1
2017-Feb-11 23:33N 31°38' E 121°15'6 5.8
2017-Feb-11 22:32N 31°34' E 121°21'0 0.0
2017-Feb-11 21:32N 31°34' E 121°21'0 0.1
2017-Feb-11 20:32N 31°34' E 121°21'0 0.2
2017-Feb-11 19:33N 31°34' E 121°21'0 0.1
2017-Feb-11 18:32N 31°34' E 121°21'0 0.0
2017-Feb-11 17:32N 31°34' E 121°21'0 0.0
2017-Feb-11 16:32N 31°34' E 121°21'0 0.0
2017-Feb-11 15:32N 31°34' E 121°21'0 0.2
2017-Feb-11 14:32N 31°34' E 121°21'0 0.5
2017-Feb-11 13:33N 31°34' E 121°21'10 9.9
2017-Feb-11 12:33N 31°27' E 121°29'7 7.1
2017-Feb-11 11:33N 31°23' E 121°36'1111.3
2017-Feb-11 10:34N 31°18' E 121°48'1010.1
2017-Feb-11 09:33N 31°15' E 121°59'9 8.6
2017-Feb-11 08:34N 31°12' E 122°09'8 8.4
2017-Feb-11 07:33N 31°07' E 122°17'  
Track history (hours):
 
Tides and Currents Weather Stations Pressure Air Temp Water Temp Dewpoint Dewpoint Depression Visibility Wind Speed Wind Dir Waves Ship Positions

Hanjin Valencia

Last reported at 2017-Feb-19 22:20 UTC. Time now 2017-Feb-27 14:15 UTC.
Position N 38°19' E 121°34'.

Length 183 m; draft 11.6 m.

Type: Tanker. MMSI: 374057000.

Date/timePositionNaut miles runAvg speedWind from/ knotsBaromVisibWave heightAir tempDewpointWater temp
2017-Feb-19 22:20N 38°19' E 121°34'2311.8
2017-Feb-19 20:25N 38°28' E 121°07'1011.6
2017-Feb-19 19:34N 38°32' E 120°56'1110.7
2017-Feb-19 18:33N 38°36' E 120°43'  
2017-Feb-15 02:28N 38°41' E 120°15'2512.7
2017-Feb-15 00:32N 38°37' E 120°46'1212.6
2017-Feb-14 23:33N 38°34' E 121°01'1313.3
2017-Feb-14 22:33N 38°27' E 121°17'1413.9
2017-Feb-14 21:33N 38°21' E 121°32'41113.1
2017-Feb-13 14:16N 31°34' E 122°45'1014.1
2017-Feb-13 13:33N 31°25' E 122°39'1313.3
2017-Feb-13 12:33N 31°13' E 122°33'8 7.7
2017-Feb-13 11:31N 31°05' E 122°30'9 9.1
2017-Feb-13 10:33N 31°06' E 122°20'1414.4
2017-Feb-13 09:33N 31°14' E 122°06'1514.6
2017-Feb-13 08:33N 31°17' E 121°49'1211.5
2017-Feb-13 07:33N 31°22' E 121°37'8 8.4
2017-Feb-13 06:33N 31°27' E 121°29'9 9.3
2017-Feb-13 05:33N 31°33' E 121°20'1111.0
2017-Feb-13 04:33N 31°40' E 121°11'1413.1
2017-Feb-13 03:31N 31°47' E 120°57'2310.7
2017-Feb-13 01:20N 32°00' E 120°35'7 8.5
2017-Feb-13 00:33N 32°00' E 120°27'0 0.1
2017-Feb-12 23:33N 32°00' E 120°27'0 0.0
2017-Feb-12 22:33N 32°00' E 120°27'0 0.0
2017-Feb-12 21:32N 32°00' E 120°27'0 0.0
2017-Feb-12 20:33N 32°00' E 120°27'0 0.0
2017-Feb-12 19:33N 32°00' E 120°27'0 0.0
2017-Feb-12 18:32N 32°00' E 120°27'0 0.0
2017-Feb-12 17:27N 32°00' E 120°27'0 0.0
2017-Feb-12 16:32N 32°00' E 120°27'0 0.0
2017-Feb-12 15:30N 32°00' E 120°27'0 0.0
2017-Feb-12 14:33N 32°00' E 120°27'0 0.0
2017-Feb-12 13:33N 32°00' E 120°27'0 0.0
2017-Feb-12 12:32N 32°00' E 120°27'0 0.0
2017-Feb-12 11:32N 32°00' E 120°27'0 0.0
2017-Feb-12 10:11N 32°00' E 120°27'0 0.0
2017-Feb-12 09:32N 32°00' E 120°27'0 0.0
2017-Feb-12 08:30N 32°00' E 120°27'0 0.0
2017-Feb-12 07:29N 32°00' E 120°27'0 0.0
2017-Feb-12 06:32N 32°00' E 120°27'0 0.0
2017-Feb-12 05:33N 32°00' E 120°27'4 3.7
2017-Feb-12 04:33N 32°02' E 120°31'28 8.7
2017-Feb-12 01:19N 31°47' E 120°59'9 8.8
2017-Feb-12 00:18N 31°42' E 121°08'710.1
2017-Feb-11 23:33N 31°38' E 121°15'6 5.8
2017-Feb-11 22:32N 31°34' E 121°21'0 0.0
2017-Feb-11 21:32N 31°34' E 121°21'0 0.1
2017-Feb-11 20:32N 31°34' E 121°21'0 0.2
2017-Feb-11 19:33N 31°34' E 121°21'0 0.1
2017-Feb-11 18:32N 31°34' E 121°21'0 0.0
2017-Feb-11 17:32N 31°34' E 121°21'0 0.0
2017-Feb-11 16:32N 31°34' E 121°21'0 0.0
2017-Feb-11 15:32N 31°34' E 121°21'0 0.2
2017-Feb-11 14:32N 31°34' E 121°21'0 0.5
2017-Feb-11 13:33N 31°34' E 121°21'10 9.9
2017-Feb-11 12:33N 31°27' E 121°29'7 7.1
2017-Feb-11 11:33N 31°23' E 121°36'1111.3
2017-Feb-11 10:34N 31°18' E 121°48'1010.1
2017-Feb-11 09:33N 31°15' E 121°59'9 8.6
2017-Feb-11 08:34N 31°12' E 122°09'8 8.4
2017-Feb-11 07:33N 31°07' E 122°17'  

Dump ship's entire track history